Time;durP1;ratioP1;P1;durP2;ratioP2;P2;SDS_P1;SDS_P2;PMS_P1;PMS_P2;Temp;Humidity;BMP_temperature;BMP_pressure;BME280_temperature;BME280_humidity;BME280_pressure;Samples;Min_cycle;Max_cycle;Signal;HPM_P1;HPM_P2
2023/06/01 00:01:41;;;;;;;3.90;1.67;;;;;;;;;;4448530;32;316487;-77
2023/06/01 00:04:09;;;;;;;2.63;1.50;;;;;;;;;;4436403;32;316675;-77
2023/06/01 00:06:38;;;;;;;2.85;1.67;;;;;;;;;;4448765;32;316774;-76
2023/06/01 00:09:06;;;;;;;3.95;2.70;;;;;;;;;;4439094;32;316655;-76
2023/06/01 00:11:33;;;;;;;5.32;2.17;;;;;;;;;;4449372;32;316899;-77
2023/06/01 00:14:00;;;;;;;4.57;2.47;;;;;;;;;;4437423;32;317090;-78
2023/06/01 00:16:28;;;;;;;6.15;2.20;;;;;;;;;;4446840;32;316715;-77
2023/06/01 00:18:56;;;;;;;4.53;2.03;;;;;;;;;;4448095;32;316620;-78
2023/06/01 00:21:24;;;;;;;3.25;2.08;;;;;;;;;;4438434;32;316826;-78
2023/06/01 00:23:53;;;;;;;6.10;2.22;;;;;;;;;;4448468;32;316720;-77
2023/06/01 00:26:21;;;;;;;3.72;1.70;;;;;;;;;;4438398;32;316648;-78
2023/06/01 00:28:48;;;;;;;3.22;2.08;;;;;;;;;;4446267;32;316763;-77
2023/06/01 00:31:15;;;;;;;8.07;2.22;;;;;;;;;;4437592;32;316541;-77
2023/06/01 00:33:42;;;;;;;2.47;1.80;;;;;;;;;;4448086;32;316863;-77
2023/06/01 00:36:10;;;;;;;2.70;1.85;;;;;;;;;;4436523;32;316730;-77
2023/06/01 00:38:37;;;;;;;9.32;2.08;;;;;;;;;;4448064;32;317078;-77
2023/06/01 00:41:06;;;;;;;3.60;2.25;;;;;;;;;;4434303;32;316811;-78
2023/06/01 00:43:33;;;;;;;2.25;1.65;;;;;;;;;;4447885;32;320900;-78
2023/06/01 00:46:01;;;;;;;3.80;1.87;;;;;;;;;;4434191;32;317186;-77
2023/06/01 00:48:29;;;;;;;11.10;2.58;;;;;;;;;;4447318;32;316849;-78
2023/06/01 00:50:58;;;;;;;5.10;1.70;;;;;;;;;;4447475;32;317730;-77
2023/06/01 00:53:26;;;;;;;3.65;1.95;;;;;;;;;;4434421;32;416532;-77
2023/06/01 00:55:54;;;;;;;3.75;2.00;;;;;;;;;;4448456;32;316619;-78
2023/06/01 00:58:23;;;;;;;3.20;1.58;;;;;;;;;;4437353;32;316873;-79
2023/06/01 01:00:53;;;;;;;2.58;1.80;;;;;;;;;;4448555;32;316599;-79
2023/06/01 01:03:21;;;;;;;4.35;1.95;;;;;;;;;;4437659;32;316601;-79
2023/06/01 01:05:50;;;;;;;3.30;2.08;;;;;;;;;;4448285;32;316897;-79
2023/06/01 01:08:25;;;;;;;5.47;1.95;;;;;;;;;;4436498;32;317144;-79
2023/06/01 01:10:57;;;;;;;10.35;2.90;;;;;;;;;;4447550;32;316906;-79
2023/06/01 01:13:30;;;;;;;5.30;2.83;;;;;;;;;;4437553;32;318471;-78
2023/06/01 01:16:04;;;;;;;11.12;3.03;;;;;;;;;;4447566;32;316954;-79
2023/06/01 01:18:37;;;;;;;9.82;2.40;;;;;;;;;;4435209;32;388074;-79
2023/06/01 01:21:21;;;;;;;8.00;2.80;;;;;;;;;;4438172;32;316867;-79
2023/06/01 01:24:14;;;;;;;7.03;2.85;;;;;;;;;;4445213;32;316952;-79
2023/06/01 01:26:58;;;;;;;15.68;2.60;;;;;;;;;;4435418;32;388126;-77
2023/06/01 01:29:30;;;;;;;5.32;2.28;;;;;;;;;;4434855;32;387889;-78
2023/06/01 01:32:01;;;;;;;9.40;2.92;;;;;;;;;;4447238;32;316865;-78
2023/06/01 01:34:29;;;;;;;4.97;2.85;;;;;;;;;;4433755;32;416859;-78
2023/06/01 01:36:57;;;;;;;6.47;1.83;;;;;;;;;;4447609;32;316817;-78
2023/06/01 01:39:24;;;;;;;5.32;2.10;;;;;;;;;;4436588;32;316831;-77
2023/06/01 01:41:51;;;;;;;2.33;2.10;;;;;;;;;;4434284;32;316730;-78
2023/06/01 01:44:20;;;;;;;3.78;2.42;;;;;;;;;;4447596;32;316826;-77
2023/06/01 01:46:58;;;;;;;5.35;2.50;;;;;;;;;;4435101;32;316944;-78
2023/06/01 01:49:28;;;;;;;4.53;2.30;;;;;;;;;;4446798;32;316785;-77
2023/06/01 01:52:06;;;;;;;6.72;2.25;;;;;;;;;;4432597;32;419223;-77
2023/06/01 01:54:38;;;;;;;8.50;2.45;;;;;;;;;;4436300;32;317450;-78
2023/06/01 01:57:06;;;;;;;4.50;2.05;;;;;;;;;;4447636;32;316882;-78
2023/06/01 01:59:34;;;;;;;12.57;2.72;;;;;;;;;;4434276;32;316959;-78
2023/06/01 02:02:04;;;;;;;12.73;3.00;;;;;;;;;;4447469;32;317939;-78
2023/06/01 02:04:32;;;;;;;4.00;2.35;;;;;;;;;;4436715;32;317731;-78
2023/06/01 02:06:59;;;;;;;3.72;2.30;;;;;;;;;;4447274;32;317057;-78
2023/06/01 02:09:27;;;;;;;7.20;2.35;;;;;;;;;;4447802;32;316758;-77
2023/06/01 02:11:54;;;;;;;3.70;2.40;;;;;;;;;;4432048;32;416321;-78
2023/06/01 02:14:22;;;;;;;3.33;2.20;;;;;;;;;;4446809;32;316707;-78
2023/06/01 02:16:50;;;;;;;6.25;2.87;;;;;;;;;;4436009;32;317167;-78
2023/06/01 02:19:18;;;;;;;12.37;3.37;;;;;;;;;;4447133;32;316895;-77
2023/06/01 02:21:46;;;;;;;8.98;3.35;;;;;;;;;;4436260;32;317781;-78
2023/06/01 02:24:14;;;;;;;9.45;3.55;;;;;;;;;;4445406;32;317232;-76
2023/06/01 02:26:42;;;;;;;10.88;3.40;;;;;;;;;;4434842;32;316726;-77
2023/06/01 02:29:09;;;;;;;7.82;3.45;;;;;;;;;;4447802;32;317954;-78
2023/06/01 02:31:37;;;;;;;6.85;3.12;;;;;;;;;;4435329;32;317106;-78
2023/06/01 02:34:04;;;;;;;7.72;2.97;;;;;;;;;;4447613;32;316659;-77
2023/06/01 02:36:34;;;;;;;6.45;3.00;;;;;;;;;;4435634;32;317231;-78
2023/06/01 02:39:01;;;;;;;8.52;3.00;;;;;;;;;;4445748;32;321681;-78
2023/06/01 02:41:29;;;;;;;7.82;3.25;;;;;;;;;;4432741;32;316845;-78
2023/06/01 02:43:56;;;;;;;9.75;3.58;;;;;;;;;;4446965;32;316666;-78
2023/06/01 02:46:23;;;;;;;8.77;4.07;;;;;;;;;;4445417;32;316714;-78
2023/06/01 02:48:52;;;;;;;9.25;3.55;;;;;;;;;;4435747;32;317050;-78
2023/06/01 02:51:20;;;;;;;4.90;3.45;;;;;;;;;;4446454;32;316861;-77
2023/06/01 02:53:49;;;;;;;7.60;3.70;;;;;;;;;;4435160;32;316750;-78
2023/06/01 02:56:16;;;;;;;4.90;3.60;;;;;;;;;;4446726;32;316716;-77
2023/06/01 02:58:43;;;;;;;6.62;3.37;;;;;;;;;;4434663;32;316962;-78
2023/06/01 03:01:11;;;;;;;6.72;3.00;;;;;;;;;;4446570;32;316933;-78
2023/06/01 03:03:39;;;;;;;5.87;3.05;;;;;;;;;;4433527;32;355740;-77
2023/06/01 03:06:08;;;;;;;10.05;4.22;;;;;;;;;;4447263;32;316895;-78
2023/06/01 03:08:36;;;;;;;12.90;3.78;;;;;;;;;;4435631;32;318002;-78
2023/06/01 03:11:05;;;;;;;15.07;5.25;;;;;;;;;;4447214;32;317889;-77
2023/06/01 03:13:33;;;;;;;9.90;4.50;;;;;;;;;;4434486;32;317748;-78
2023/06/01 03:16:00;;;;;;;8.90;5.18;;;;;;;;;;4446672;32;316809;-78
2023/06/01 03:18:27;;;;;;;9.50;4.68;;;;;;;;;;4446781;32;317228;-78
2023/06/01 03:20:55;;;;;;;7.07;4.53;;;;;;;;;;4433789;32;386483;-77
2023/06/01 03:23:22;;;;;;;13.27;5.20;;;;;;;;;;4446967;32;316775;-78
2023/06/01 03:25:50;;;;;;;6.10;3.55;;;;;;;;;;4434704;32;317756;-78
2023/06/01 03:28:19;;;;;;;6.30;3.90;;;;;;;;;;4448710;32;316873;-78
2023/06/01 03:30:46;;;;;;;9.30;3.65;;;;;;;;;;4439316;32;316730;-77
2023/06/01 03:33:14;;;;;;;9.85;4.05;;;;;;;;;;4448442;32;316696;-78
2023/06/01 03:35:41;;;;;;;4.85;3.62;;;;;;;;;;4439346;32;316774;-78
2023/06/01 03:38:09;;;;;;;5.60;3.42;;;;;;;;;;4448720;32;316715;-77
2023/06/01 03:40:36;;;;;;;4.45;3.30;;;;;;;;;;4439209;32;316964;-78
2023/06/01 03:43:03;;;;;;;9.43;3.70;;;;;;;;;;4449102;32;316830;-78
2023/06/01 03:45:32;;;;;;;3.60;2.70;;;;;;;;;;4434997;32;317104;-78
2023/06/01 03:48:00;;;;;;;8.50;3.83;;;;;;;;;;4448733;32;316802;-78
2023/06/01 03:50:27;;;;;;;12.70;3.33;;;;;;;;;;4449599;32;317097;-78
2023/06/01 03:52:55;;;;;;;7.65;3.80;;;;;;;;;;4435177;32;417269;-78
2023/06/01 03:55:22;;;;;;;7.97;3.62;;;;;;;;;;4449902;32;316939;-78
2023/06/01 03:57:50;;;;;;;9.48;4.30;;;;;;;;;;4438118;32;316710;-78
2023/06/01 04:00:20;;;;;;;10.05;6.75;;;;;;;;;;4449275;32;316706;-78
2023/06/01 04:02:52;;;;;;;11.40;6.45;;;;;;;;;;4436898;32;358249;-77
2023/06/01 04:05:20;;;;;;;16.58;9.60;;;;;;;;;;4449380;32;317940;-78
2023/06/01 04:07:48;;;;;;;14.60;8.02;;;;;;;;;;4438415;32;317939;-78
2023/06/01 04:10:16;;;;;;;22.58;6.85;;;;;;;;;;4449320;32;317705;-78
2023/06/01 04:12:44;;;;;;;7.90;5.37;;;;;;;;;;4435862;32;317934;-77
2023/06/01 04:15:13;;;;;;;12.02;5.30;;;;;;;;;;4458190;32;316597;-78
2023/06/01 04:17:42;;;;;;;11.27;4.78;;;;;;;;;;4446673;32;318064;-78
2023/06/01 04:20:13;;;;;;;10.45;6.60;;;;;;;;;;4457495;32;317782;-78
2023/06/01 04:22:41;;;;;;;10.77;5.15;;;;;;;;;;4445999;32;317933;-87
2023/06/01 04:25:12;;;;;;;7.28;4.62;;;;;;;;;;4456046;32;317785;-78
2023/06/01 04:27:44;;;;;;;7.50;4.37;;;;;;;;;;4438223;32;316921;-78
2023/06/01 04:30:12;;;;;;;17.75;5.75;;;;;;;;;;4447343;32;316656;-78
2023/06/01 04:32:40;;;;;;;10.87;4.53;;;;;;;;;;4436978;32;317961;-78
2023/06/01 04:35:10;;;;;;;10.23;6.18;;;;;;;;;;4448352;32;317769;-78
2023/06/01 04:37:39;;;;;;;15.95;6.20;;;;;;;;;;4436787;32;317970;-78
2023/06/01 04:40:09;;;;;;;10.77;5.72;;;;;;;;;;4448581;32;317984;-78
2023/06/01 04:42:38;;;;;;;8.55;5.43;;;;;;;;;;4437872;32;317669;-78
2023/06/01 04:45:07;;;;;;;7.07;5.90;;;;;;;;;;4448705;32;316861;-78
2023/06/01 04:47:37;;;;;;;19.52;6.07;;;;;;;;;;4435567;32;316839;-78
2023/06/01 04:50:08;;;;;;;9.70;5.10;;;;;;;;;;4447188;32;317829;-78
2023/06/01 04:52:37;;;;;;;11.65;5.60;;;;;;;;;;4438114;32;316902;-78
2023/06/01 04:55:05;;;;;;;13.60;6.37;;;;;;;;;;4447156;32;344065;-78
2023/06/01 04:57:33;;;;;;;11.43;4.68;;;;;;;;;;4432324;32;317767;-78
2023/06/01 05:00:01;;;;;;;7.70;5.47;;;;;;;;;;4445098;32;317757;-78
2023/06/01 05:02:29;;;;;;;6.87;4.70;;;;;;;;;;4437800;32;316870;-79
2023/06/01 05:04:56;;;;;;;11.30;4.72;;;;;;;;;;4447743;32;316788;-78
2023/06/01 05:07:24;;;;;;;8.23;4.80;;;;;;;;;;4445850;32;317829;-77
2023/06/01 05:09:53;;;;;;;11.00;4.90;;;;;;;;;;4435744;32;350611;-79
2023/06/01 05:12:20;;;;;;;8.73;4.12;;;;;;;;;;4448376;32;316520;-77
2023/06/01 05:14:48;;;;;;;5.32;4.32;;;;;;;;;;4436993;32;316851;-78
2023/06/01 05:17:15;;;;;;;9.70;5.15;;;;;;;;;;4448053;32;316978;-78
2023/06/01 05:19:42;;;;;;;10.98;6.22;;;;;;;;;;4434292;32;346143;-78
2023/06/01 05:22:11;;;;;;;19.67;13.20;;;;;;;;;;4446025;32;317755;-78
2023/06/01 05:24:39;;;;;;;10.20;6.95;;;;;;;;;;4435231;32;318700;-78
2023/06/01 05:27:08;;;;;;;6.90;5.70;;;;;;;;;;4447287;32;317605;-78
2023/06/01 05:29:35;;;;;;;16.75;6.68;;;;;;;;;;4437339;32;316988;-77
2023/06/01 05:32:03;;;;;;;11.63;6.00;;;;;;;;;;4446802;32;317814;-77
2023/06/01 05:34:30;;;;;;;18.23;6.62;;;;;;;;;;4437268;32;317822;-77
2023/06/01 05:36:58;;;;;;;12.65;6.60;;;;;;;;;;4444794;32;317903;-77
2023/06/01 05:39:28;;;;;;;27.50;6.95;;;;;;;;;;4447537;32;317654;-77
2023/06/01 05:41:55;;;;;;;18.15;6.28;;;;;;;;;;4431638;32;417689;-77
2023/06/01 05:44:24;;;;;;;12.37;7.40;;;;;;;;;;4446645;32;317564;-77
2023/06/01 05:46:52;;;;;;;14.38;6.68;;;;;;;;;;4434056;32;317647;-77
2023/06/01 05:49:20;;;;;;;11.60;6.20;;;;;;;;;;4445530;32;330372;-77
2023/06/01 05:51:47;;;;;;;10.27;5.37;;;;;;;;;;4435966;32;317627;-77
2023/06/01 05:54:15;;;;;;;10.57;6.35;;;;;;;;;;4446462;32;317698;-76
2023/06/01 05:56:42;;;;;;;10.60;6.25;;;;;;;;;;4436915;32;317518;-77
2023/06/01 05:59:09;;;;;;;11.48;6.45;;;;;;;;;;4446392;32;317474;-77
2023/06/01 06:01:38;;;;;;;9.50;7.12;;;;;;;;;;4434290;32;318263;-77
2023/06/01 06:04:06;;;;;;;8.40;5.80;;;;;;;;;;4444672;32;316559;-77
2023/06/01 06:06:33;;;;;;;11.43;6.10;;;;;;;;;;4436041;32;344859;-79
2023/06/01 06:09:01;;;;;;;7.45;5.60;;;;;;;;;;4446447;32;317736;-77
2023/06/01 06:11:28;;;;;;;11.40;5.68;;;;;;;;;;4437401;32;316447;-78
2023/06/01 06:13:55;;;;;;;12.48;5.95;;;;;;;;;;4446516;32;340367;-77
2023/06/01 06:16:23;;;;;;;8.95;5.53;;;;;;;;;;4443856;32;317631;-77
2023/06/01 06:18:52;;;;;;;14.60;5.70;;;;;;;;;;4436302;32;316907;-76
2023/06/01 06:21:19;;;;;;;15.75;6.07;;;;;;;;;;4446262;32;317638;-76
2023/06/01 06:23:47;;;;;;;6.43;5.30;;;;;;;;;;4432525;32;334366;-76
2023/06/01 06:26:15;;;;;;;12.10;5.18;;;;;;;;;;4445509;32;316611;-76
2023/06/01 06:28:42;;;;;;;9.68;6.15;;;;;;;;;;4434849;32;317754;-76
2023/06/01 06:31:10;;;;;;;12.63;5.55;;;;;;;;;;4430722;32;316836;-79
2023/06/01 06:33:38;;;;;;;8.07;6.65;;;;;;;;;;4435549;32;317906;-76
2023/06/01 06:36:08;;;;;;;7.28;4.80;;;;;;;;;;4445520;32;316772;-76
2023/06/01 06:38:35;;;;;;;11.52;5.85;;;;;;;;;;4435825;32;316901;-76
2023/06/01 06:41:07;;;;;;;10.20;6.22;;;;;;;;;;4429827;32;317772;-76
2023/06/01 06:43:36;;;;;;;7.07;5.18;;;;;;;;;;4435622;32;317808;-76
2023/06/01 06:46:04;;;;;;;13.10;5.15;;;;;;;;;;4445276;32;316716;-77
2023/06/01 06:48:32;;;;;;;5.97;5.10;;;;;;;;;;4433926;32;318018;-79
2023/06/01 06:51:03;;;;;;;12.05;4.78;;;;;;;;;;4446255;32;316818;-79
2023/06/01 06:53:33;;;;;;;7.10;4.60;;;;;;;;;;4434404;32;317888;-79
2023/06/01 06:56:00;;;;;;;10.65;6.47;;;;;;;;;;4428048;32;316904;-79
2023/06/01 06:58:28;;;;;;;6.90;6.20;;;;;;;;;;4442182;32;317786;-81
2023/06/01 07:00:55;;;;;;;8.25;5.10;;;;;;;;;;4430035;32;418863;-80
2023/06/01 07:03:23;;;;;;;9.73;5.22;;;;;;;;;;4447692;32;338757;-80
2023/06/01 07:05:50;;;;;;;9.52;5.95;;;;;;;;;;4437836;32;316922;-79
2023/06/01 07:08:17;;;;;;;9.93;5.00;;;;;;;;;;4449038;32;316943;-79
2023/06/01 07:10:46;;;;;;;9.48;5.37;;;;;;;;;;4436715;32;316574;-78
2023/06/01 07:13:14;;;;;;;9.95;5.55;;;;;;;;;;4448810;32;317084;-78
2023/06/01 07:15:42;;;;;;;7.62;5.78;;;;;;;;;;4438671;32;316773;-79
2023/06/01 07:18:10;;;;;;;17.50;5.70;;;;;;;;;;4447640;32;317062;-78
2023/06/01 07:20:37;;;;;;;7.70;6.07;;;;;;;;;;4438691;32;317838;-80
2023/06/01 07:23:05;;;;;;;10.23;5.80;;;;;;;;;;4446493;32;317149;-79
2023/06/01 07:25:32;;;;;;;7.55;5.68;;;;;;;;;;4439065;32;317956;-79
2023/06/01 07:28:06;;;;;;;12.02;6.80;;;;;;;;;;4448593;32;330465;-79
2023/06/01 07:30:34;;;;;;;7.60;5.53;;;;;;;;;;4435342;32;318093;-79
2023/06/01 07:33:03;;;;;;;11.30;6.15;;;;;;;;;;4448779;32;316954;-77
2023/06/01 07:35:32;;;;;;;22.75;10.32;;;;;;;;;;4442424;32;317834;-77
2023/06/01 07:38:00;;;;;;;13.88;6.12;;;;;;;;;;4454594;32;330707;-83
2023/06/01 07:40:27;;;;;;;13.93;6.62;;;;;;;;;;4454950;32;317852;-77
2023/06/01 07:42:55;;;;;;;19.87;9.88;;;;;;;;;;4415999;26;417185;-77
2023/06/01 07:45:24;;;;;;;16.02;6.57;;;;;;;;;;4394464;32;318066;-83
2023/06/01 07:47:51;;;;;;;11.85;6.57;;;;;;;;;;4382358;32;317792;-77
2023/06/01 07:50:19;;;;;;;11.77;5.25;;;;;;;;;;4393209;32;317747;-83
2023/06/01 07:52:46;;;;;;;12.60;4.72;;;;;;;;;;4380540;32;318107;-83
2023/06/01 07:55:15;;;;;;;6.97;5.05;;;;;;;;;;4394047;32;317845;-77
2023/06/01 07:57:42;;;;;;;11.27;5.78;;;;;;;;;;4381241;32;316781;-91
2023/06/01 08:00:12;;;;;;;7.68;5.78;;;;;;;;;;4391931;32;317839;-79
2023/06/01 08:02:41;;;;;;;12.52;5.93;;;;;;;;;;4380879;32;317010;-77
2023/06/01 08:05:11;;;;;;;12.35;6.35;;;;;;;;;;4390646;32;317819;-77
2023/06/01 08:07:39;;;;;;;8.77;4.65;;;;;;;;;;4381115;32;317757;-78
2023/06/01 08:10:08;;;;;;;10.65;6.55;;;;;;;;;;4392629;32;316580;-77
2023/06/01 08:12:36;;;;;;;8.65;5.00;;;;;;;;;;4381368;32;317707;-77
2023/06/01 08:15:04;;;;;;;10.38;5.45;;;;;;;;;;4388507;32;316609;-80
2023/06/01 08:17:31;;;;;;;11.07;5.18;;;;;;;;;;4377925;32;317722;-76
2023/06/01 08:20:00;;;;;;;12.10;4.75;;;;;;;;;;4391185;32;317659;-77
2023/06/01 08:22:28;;;;;;;6.00;4.50;;;;;;;;;;4390126;32;317957;-78
2023/06/01 08:24:57;;;;;;;17.90;5.37;;;;;;;;;;4376485;32;416020;-79
2023/06/01 08:27:24;;;;;;;16.23;5.78;;;;;;;;;;4391093;32;317810;-89
2023/06/01 08:29:52;;;;;;;9.80;5.78;;;;;;;;;;4380620;32;317858;-78
2023/06/01 08:32:22;;;;;;;10.60;5.43;;;;;;;;;;4391366;32;317023;-89
2023/06/01 08:34:50;;;;;;;18.80;7.90;;;;;;;;;;4383458;32;317648;-78
2023/06/01 08:37:19;;;;;;;10.63;5.28;;;;;;;;;;4392397;32;317759;-77
2023/06/01 08:39:46;;;;;;;7.15;5.50;;;;;;;;;;4381509;32;317976;-77
2023/06/01 08:42:21;;;;;;;23.23;6.68;;;;;;;;;;4391640;32;342963;-87
2023/06/01 08:44:52;;;;;;;9.45;5.12;;;;;;;;;;4380255;32;318028;-77
2023/06/01 08:47:19;;;;;;;13.98;6.32;;;;;;;;;;4391497;32;316730;-93
2023/06/01 08:49:48;;;;;;;20.03;7.40;;;;;;;;;;4376430;32;318024;-77
2023/06/01 08:52:22;;;;;;;13.80;7.12;;;;;;;;;;4389725;32;317881;-78
2023/06/01 08:54:50;;;;;;;14.13;7.32;;;;;;;;;;4381296;32;317791;-79
2023/06/01 08:57:19;;;;;;;14.60;6.97;;;;;;;;;;4390245;32;317788;-76
2023/06/01 08:59:47;;;;;;;14.18;6.18;;;;;;;;;;4379064;32;317777;-78
2023/06/01 09:02:15;;;;;;;10.45;5.87;;;;;;;;;;4392901;32;317669;-79
2023/06/01 09:04:44;;;;;;;11.65;5.47;;;;;;;;;;4382906;32;348194;-78
2023/06/01 09:07:12;;;;;;;8.38;5.03;;;;;;;;;;4393505;32;317897;-78
2023/06/01 09:09:41;;;;;;;16.48;6.18;;;;;;;;;;4383539;32;316800;-89
2023/06/01 09:12:25;;;;;;;9.55;5.20;;;;;;;;;;4394343;32;317827;-89
2023/06/01 09:15:09;;;;;;;12.48;5.75;;;;;;;;;;4384688;32;316993;-87
2023/06/01 09:17:37;;;;;;;6.70;6.00;;;;;;;;;;4380141;32;317910;-87
2023/06/01 09:20:06;;;;;;;11.50;5.72;;;;;;;;;;4395170;32;316741;-78
2023/06/01 09:22:41;;;;;;;12.07;6.18;;;;;;;;;;4378560;32;317848;-78
2023/06/01 09:25:12;;;;;;;10.05;5.75;;;;;;;;;;4393873;32;317542;-78
2023/06/01 09:27:48;;;;;;;8.02;5.32;;;;;;;;;;4385674;32;317871;-81
2023/06/01 09:30:16;;;;;;;10.60;5.53;;;;;;;;;;4396002;32;316469;-78
2023/06/01 09:32:47;;;;;;;7.53;5.00;;;;;;;;;;4380536;32;356015;-89
2023/06/01 09:35:15;;;;;;;8.80;5.45;;;;;;;;;;4395052;32;316823;-85
2023/06/01 09:37:56;;;;;;;7.93;4.95;;;;;;;;;;4381265;32;316820;-78
2023/06/01 09:40:24;;;;;;;12.82;6.32;;;;;;;;;;4391144;32;317062;-79
2023/06/01 09:42:52;;;;;;;9.95;5.45;;;;;;;;;;4388174;27;318185;-81
2023/06/01 09:45:22;;;;;;;7.30;5.47;;;;;;;;;;4389502;32;316790;-77
2023/06/01 09:47:50;;;;;;;10.00;5.12;;;;;;;;;;4379745;32;316624;-95
2023/06/01 09:50:37;;;;;;;9.77;5.53;;;;;;;;;;4387887;32;317813;-78
2023/06/01 09:53:05;;;;;;;5.95;5.35;;;;;;;;;;4376404;32;415876;-85
2023/06/01 09:55:34;;;;;;;7.65;5.68;;;;;;;;;;4380033;32;316933;-82
2023/06/01 09:58:21;;;;;;;10.55;5.37;;;;;;;;;;4389829;32;316792;-79
2023/06/01 10:00:50;;;;;;;11.32;5.72;;;;;;;;;;4377573;32;317695;-78
2023/06/01 10:03:21;;;;;;;7.82;5.37;;;;;;;;;;4386133;32;317706;-78
2023/06/01 10:05:49;;;;;;;10.68;5.93;;;;;;;;;;4376183;32;316820;-78
2023/06/01 10:08:18;;;;;;;10.55;6.10;;;;;;;;;;4384492;32;336900;-78
2023/06/01 10:10:48;;;;;;;5.90;5.15;;;;;;;;;;4366959;32;317918;-78
2023/06/01 10:13:16;;;;;;;6.95;5.28;;;;;;;;;;4367365;32;316660;-78
2023/06/01 10:15:44;;;;;;;7.70;5.03;;;;;;;;;;4375732;32;316573;-78
2023/06/01 10:18:11;;;;;;;9.07;5.43;;;;;;;;;;4383992;32;325974;-79
2023/06/01 10:20:39;;;;;;;12.23;5.40;;;;;;;;;;4373400;32;316755;-80
2023/06/01 10:23:07;;;;;;;8.80;6.10;;;;;;;;;;4384454;32;317633;-80
2023/06/01 10:25:39;;;;;;;9.02;5.80;;;;;;;;;;4375238;32;316937;-79
2023/06/01 10:28:12;;;;;;;6.25;5.65;;;;;;;;;;4385807;32;316566;-81
2023/06/01 10:30:40;;;;;;;14.65;5.60;;;;;;;;;;4375496;32;316752;-79
2023/06/01 10:33:09;;;;;;;11.12;6.55;;;;;;;;;;4384530;32;317925;-80
2023/06/01 10:35:54;;;;;;;7.03;5.93;;;;;;;;;;4379146;32;317942;-82
2023/06/01 10:38:26;;;;;;;12.27;7.07;;;;;;;;;;4392347;32;316901;-78
2023/06/01 10:40:55;;;;;;;7.30;5.45;;;;;;;;;;4378178;32;417053;-84
2023/06/01 10:43:45;;;;;;;9.50;6.18;;;;;;;;;;4390923;32;316708;-89
2023/06/01 10:46:41;;;;;;;6.28;5.03;;;;;;;;;;4331871;33;417155;-78
2023/06/01 10:49:09;;;;;;;8.63;5.72;;;;;;;;;;4322578;33;417334;-77
2023/06/01 10:51:36;;;;;;;9.73;6.07;;;;;;;;;;4329401;33;317105;-78
2023/06/01 10:54:27;;;;;;;10.02;5.97;;;;;;;;;;4346341;33;316662;-81
2023/06/01 10:57:20;;;;;;;12.98;5.97;;;;;;;;;;4332310;33;388087;-79
2023/06/01 11:00:14;;;;;;;8.50;5.35;;;;;;;;;;4335633;33;318074;-85
2023/06/01 11:02:49;;;;;;;10.65;6.53;;;;;;;;;;4335052;33;317005;-78
2023/06/01 11:05:43;;;;;;;8.73;5.57;;;;;;;;;;4346616;33;317562;-78
2023/06/01 11:08:44;;;;;;;12.07;5.85;;;;;;;;;;4331235;33;417223;-81
2023/06/01 11:11:11;;;;;;;10.82;6.80;;;;;;;;;;4324388;33;418267;-78
2023/06/01 11:13:39;;;;;;;17.87;6.40;;;;;;;;;;4335538;33;317844;-89
2023/06/01 11:16:30;;;;;;;11.27;6.85;;;;;;;;;;4344593;33;317974;-78
2023/06/01 11:19:02;;;;;;;10.40;6.50;;;;;;;;;;4331485;33;418393;-78
2023/06/01 11:21:33;;;;;;;6.22;5.62;;;;;;;;;;4338086;33;317856;-78
2023/06/01 11:24:04;;;;;;;8.38;5.35;;;;;;;;;;4342910;33;316834;-79
2023/06/01 11:26:33;;;;;;;7.87;5.90;;;;;;;;;;4337043;33;316971;-79
2023/06/01 11:29:06;;;;;;;8.52;5.80;;;;;;;;;;4345857;33;316616;-93
2023/06/01 11:31:40;;;;;;;7.85;5.32;;;;;;;;;;4337175;33;316940;-79
2023/06/01 11:34:09;;;;;;;8.70;5.78;;;;;;;;;;4347474;33;316781;-88
2023/06/01 11:36:42;;;;;;;10.27;5.80;;;;;;;;;;4337942;33;317008;-96
2023/06/01 11:39:22;;;;;;;7.72;5.82;;;;;;;;;;4343672;32;317928;-96
2023/06/01 11:41:54;;;;;;;7.07;5.97;;;;;;;;;;4333889;33;317173;-82
2023/06/01 11:44:21;;;;;;;6.12;5.55;;;;;;;;;;4344543;33;316913;-88
2023/06/01 11:47:00;;;;;;;8.73;5.28;;;;;;;;;;4337079;33;316866;-90
2023/06/01 11:49:28;;;;;;;8.85;5.00;;;;;;;;;;4348317;32;316668;-78
2023/06/01 11:51:57;;;;;;;5.28;4.40;;;;;;;;;;4335029;32;416474;-84
2023/06/01 11:54:27;;;;;;;11.50;5.45;;;;;;;;;;4349110;32;316796;-82
2023/06/01 11:56:55;;;;;;;6.78;4.60;;;;;;;;;;4332743;32;417914;-85
2023/06/01 11:59:23;;;;;;;8.73;4.80;;;;;;;;;;4346740;32;316777;-96
2023/06/01 12:01:53;;;;;;;5.20;4.40;;;;;;;;;;4334791;32;316775;-90
2023/06/01 12:04:24;;;;;;;15.73;5.43;;;;;;;;;;4344569;32;315660;-93
2023/06/01 12:06:53;;;;;;;10.82;4.37;;;;;;;;;;4335806;32;318084;-84
2023/06/01 12:09:21;;;;;;;6.55;5.10;;;;;;;;;;4345359;32;317768;-94
2023/06/01 12:11:49;;;;;;;8.25;4.80;;;;;;;;;;4334918;32;316673;-94
2023/06/01 12:14:16;;;;;;;14.15;4.75;;;;;;;;;;4336493;32;316854;-79
2023/06/01 12:16:58;;;;;;;7.75;4.82;;;;;;;;;;4335106;32;317875;-96
2023/06/01 12:19:28;;;;;;;4.65;4.03;;;;;;;;;;4345720;32;337778;-79
2023/06/01 12:21:56;;;;;;;6.93;4.70;;;;;;;;;;4332042;32;416602;-79
2023/06/01 12:24:34;;;;;;;6.55;4.80;;;;;;;;;;4346145;32;315761;-79
2023/06/01 12:27:02;;;;;;;12.65;5.28;;;;;;;;;;4332687;32;419181;-89
2023/06/01 12:29:39;;;;;;;12.00;4.47;;;;;;;;;;4332523;32;318086;-81
2023/06/01 12:32:08;;;;;;;14.87;5.82;;;;;;;;;;4342240;32;316520;-83
2023/06/01 12:34:39;;;;;;;10.43;6.03;;;;;;;;;;4327489;32;317952;-82
2023/06/01 12:37:14;;;;;;;9.43;6.10;;;;;;;;;;4341345;32;317752;-82
2023/06/01 12:39:42;;;;;;;14.40;5.85;;;;;;;;;;4330894;32;317171;-82
2023/06/01 12:42:11;;;;;;;7.43;5.20;;;;;;;;;;4342000;32;317522;-82
2023/06/01 12:44:39;;;;;;;16.83;5.77;;;;;;;;;;4329180;32;316979;-83
2023/06/01 12:47:07;;;;;;;10.00;5.07;;;;;;;;;;4341418;32;317793;-80
2023/06/01 12:49:37;;;;;;;8.13;5.25;;;;;;;;;;4332490;32;317789;-82
2023/06/01 12:52:06;;;;;;;8.02;5.07;;;;;;;;;;4342683;32;319554;-79
2023/06/01 12:54:34;;;;;;;5.50;4.85;;;;;;;;;;4332488;32;317050;-84
2023/06/01 12:57:01;;;;;;;7.07;4.95;;;;;;;;;;4341992;32;350039;-80
2023/06/01 12:59:29;;;;;;;8.57;4.57;;;;;;;;;;4332525;32;316901;-81
2023/06/01 13:01:56;;;;;;;10.02;5.00;;;;;;;;;;4341818;32;337323;-84
2023/06/01 13:04:25;;;;;;;6.43;4.70;;;;;;;;;;4341967;32;318004;-85
2023/06/01 13:06:52;;;;;;;12.50;4.60;;;;;;;;;;4331873;32;316833;-83
2023/06/01 13:09:21;;;;;;;12.35;4.68;;;;;;;;;;4339472;32;317929;-83
2023/06/01 13:11:48;;;;;;;7.62;4.82;;;;;;;;;;4330397;32;318002;-83
2023/06/01 13:14:16;;;;;;;8.23;4.57;;;;;;;;;;4342451;32;316737;-83
2023/06/01 13:16:44;;;;;;;11.25;5.32;;;;;;;;;;4331798;32;316945;-83
2023/06/01 13:19:12;;;;;;;6.45;4.43;;;;;;;;;;4340665;32;317908;-83
2023/06/01 13:21:39;;;;;;;7.85;5.55;;;;;;;;;;4330755;32;356867;-83
2023/06/01 13:24:08;;;;;;;5.20;4.65;;;;;;;;;;4340260;32;316707;-83
2023/06/01 13:26:37;;;;;;;7.85;4.90;;;;;;;;;;4330422;32;316674;-83
2023/06/01 13:29:06;;;;;;;7.85;5.00;;;;;;;;;;4341044;32;316717;-83
2023/06/01 13:31:35;;;;;;;8.90;4.47;;;;;;;;;;4331466;32;316849;-83
2023/06/01 13:34:03;;;;;;;8.27;5.12;;;;;;;;;;4341557;32;316960;-82
2023/06/01 13:36:30;;;;;;;5.87;4.60;;;;;;;;;;4330562;32;316879;-87
2023/06/01 13:38:58;;;;;;;8.90;5.47;;;;;;;;;;4341487;32;316939;-82
2023/06/01 13:41:26;;;;;;;7.90;4.87;;;;;;;;;;4339869;32;317225;-82
2023/06/01 13:43:55;;;;;;;6.15;4.97;;;;;;;;;;4330653;32;317151;-84
2023/06/01 13:46:22;;;;;;;8.93;5.07;;;;;;;;;;4341687;32;317170;-83
2023/06/01 13:48:49;;;;;;;5.72;5.00;;;;;;;;;;4330122;32;332144;-84
2023/06/01 13:51:17;;;;;;;8.10;5.05;;;;;;;;;;4341955;32;316692;-83
2023/06/01 13:53:44;;;;;;;10.07;5.20;;;;;;;;;;4330806;32;316821;-83
2023/06/01 13:56:11;;;;;;;5.07;4.50;;;;;;;;;;4340241;32;317947;-83
2023/06/01 13:58:39;;;;;;;8.27;4.85;;;;;;;;;;4330794;32;316697;-83
2023/06/01 14:01:08;;;;;;;10.85;5.22;;;;;;;;;;4340959;32;316939;-83
2023/06/01 14:03:35;;;;;;;5.97;4.50;;;;;;;;;;4330471;32;317724;-84
2023/06/01 14:06:03;;;;;;;8.65;5.65;;;;;;;;;;4340656;32;316450;-83
2023/06/01 14:08:30;;;;;;;11.00;6.18;;;;;;;;;;4331060;32;316765;-84
2023/06/01 14:10:57;;;;;;;8.88;5.68;;;;;;;;;;4339391;32;317695;-84
2023/06/01 14:13:25;;;;;;;10.07;6.05;;;;;;;;;;4341493;32;316664;-85
2023/06/01 14:15:52;;;;;;;8.00;4.78;;;;;;;;;;4331079;32;317836;-87
2023/06/01 14:18:21;;;;;;;14.87;5.97;;;;;;;;;;4340749;32;316716;-86
2023/06/01 14:20:49;;;;;;;10.18;5.32;;;;;;;;;;4329050;32;357768;-80
2023/06/01 14:23:16;;;;;;;9.48;4.82;;;;;;;;;;4339699;32;317422;-83
2023/06/01 14:25:44;;;;;;;6.65;5.32;;;;;;;;;;4331238;32;317577;-83
2023/06/01 14:28:12;;;;;;;5.72;4.62;;;;;;;;;;4341645;32;316780;-84
2023/06/01 14:30:39;;;;;;;7.97;4.90;;;;;;;;;;4329811;32;352205;-85
2023/06/01 14:33:07;;;;;;;14.70;5.20;;;;;;;;;;4341384;32;316733;-82
2023/06/01 14:35:36;;;;;;;7.75;4.75;;;;;;;;;;4331726;32;317745;-81
2023/06/01 14:38:03;;;;;;;7.55;5.12;;;;;;;;;;4343739;33;316568;-82